Time;durP1;ratioP1;P1;durP2;ratioP2;P2;SDS_P1;SDS_P2;PMS_P1;PMS_P2;Temp;Humidity;BMP_temperature;BMP_pressure;BME280_temperature;BME280_humidity;BME280_pressure;Samples;Min_cycle;Max_cycle;Signal;HPM_P1;HPM_P2
2024/04/10 00:00:50;;;;;;;7.50;2.90;;;13.00;1.00;;;;;;5443167;26;20290;-74
2024/04/10 00:03:40;;;;;;;9.53;3.10;;;13.10;99.90;;;;;;5433008;26;20239;-74
2024/04/10 00:06:30;;;;;;;11.47;3.40;;;13.10;99.90;;;;;;5433474;26;20275;-74
2024/04/10 00:09:17;;;;;;;11.27;3.37;;;12.90;99.90;;;;;;5447861;26;20755;-74
2024/04/10 00:12:09;;;;;;;20.17;3.30;;;12.90;1.00;;;;;;5449413;26;20229;-74
2024/04/10 00:14:56;;;;;;;12.90;3.73;;;12.90;1.00;;;;;;5435489;26;20608;-74
2024/04/10 00:17:45;;;;;;;12.97;4.43;;;13.10;99.90;;;;;;5443171;26;20273;-74
2024/04/10 00:20:32;;;;;;;16.23;3.97;;;13.30;99.90;;;;;;5437603;26;20295;-74
2024/04/10 00:23:21;;;;;;;16.00;4.70;;;13.80;99.90;;;;;;5440914;26;20273;-74
2024/04/10 00:26:08;;;;;;;16.30;4.40;;;13.80;99.90;;;;;;5441897;26;20244;-74
2024/04/10 00:29:00;;;;;;;19.77;4.07;;;13.90;99.90;;;;;;5439785;26;20332;-74
2024/04/10 00:31:50;;;;;;;10.53;4.40;;;14.10;99.90;;;;;;5445975;26;20284;-74
2024/04/10 00:34:40;;;;;;;14.03;4.03;;;14.30;99.90;;;;;;5428343;26;20229;-74
2024/04/10 00:37:27;;;;;;;23.07;5.37;;;14.60;91.30;;;;;;5442640;26;20236;-74
2024/04/10 00:40:16;;;;;;;20.33;4.90;;;15.10;8.80;;;;;;5432932;26;20244;-74
2024/04/10 00:43:03;;;;;;;24.07;5.47;;;15.20;19.60;;;;;;5448046;26;20298;-74
2024/04/10 00:45:57;;;;;;;22.87;5.10;;;15.30;18.20;;;;;;5446468;26;20222;-74
2024/04/10 00:48:44;;;;;;;21.83;5.00;;;15.30;3.70;;;;;;5431998;26;20351;-74
2024/04/10 00:51:34;;;;;;;21.63;4.80;;;15.20;48.10;;;;;;5446630;26;20333;-74
2024/04/10 00:54:22;;;;;;;20.27;5.20;;;15.20;99.90;;;;;;5442733;26;20292;-75
2024/04/10 00:57:12;;;;;;;17.43;5.07;;;15.20;72.60;;;;;;5439139;26;20239;-75
2024/04/10 00:59:58;;;;;;;24.03;6.07;;;15.10;73.70;;;;;;5442281;26;20235;-74
2024/04/10 01:02:51;;;;;;;27.97;5.60;;;15.00;99.90;;;;;;5439958;26;20303;-75
2024/04/10 01:05:37;;;;;;;24.23;5.33;;;15.00;99.90;;;;;;5447434;26;20555;-74
2024/04/10 01:08:27;;;;;;;19.67;5.20;;;15.00;83.70;;;;;;5438209;26;20709;-74
2024/04/10 01:11:13;;;;;;;28.70;5.93;;;15.00;89.70;;;;;;5443677;26;20273;-74
2024/04/10 01:14:03;;;;;;;18.47;5.17;;;15.10;94.60;;;;;;5443017;26;20225;-74
2024/04/10 01:16:50;;;;;;;26.33;5.87;;;15.00;84.90;;;;;;5439327;26;20277;-74
2024/04/10 01:19:42;;;;;;;22.93;5.23;;;14.90;85.60;;;;;;5438345;26;20765;-74
2024/04/10 01:22:29;;;;;;;23.93;5.53;;;14.90;99.90;;;;;;5439220;26;20581;-74
2024/04/10 01:25:21;;;;;;;22.03;5.10;;;14.70;99.90;;;;;;5442750;26;20275;-74
2024/04/10 01:28:07;;;;;;;18.57;5.20;;;14.60;99.90;;;;;;5428131;26;20269;-74
2024/04/10 01:30:57;;;;;;;23.97;6.07;;;14.70;99.90;;;;;;5444878;26;20274;-74
2024/04/10 01:33:44;;;;;;;23.90;5.50;;;14.90;99.90;;;;;;5450508;26;20288;-74
2024/04/10 01:36:33;;;;;;;32.83;6.00;;;14.80;99.90;;;;;;5441009;26;20229;-74
2024/04/10 01:39:20;;;;;;;22.07;5.77;;;14.80;99.90;;;;;;5442327;26;20282;-74
2024/04/10 01:42:12;;;;;;;36.83;6.20;;;14.80;99.90;;;;;;5438705;26;20227;-74
2024/04/10 01:44:59;;;;;;;16.93;5.97;;;14.70;99.90;;;;;;5435845;26;20274;-74
2024/04/10 01:47:48;;;;;;;19.40;5.50;;;14.70;99.90;;;;;;5439502;26;20345;-74
2024/04/10 01:50:35;;;;;;;19.17;5.20;;;14.60;99.90;;;;;;5444280;26;20782;-74
2024/04/10 01:53:24;;;;;;;25.57;5.17;;;14.60;99.90;;;;;;5439828;26;20340;-74
2024/04/10 01:56:11;;;;;;;19.90;5.63;;;14.70;99.90;;;;;;5444678;26;20287;-74
2024/04/10 01:59:03;;;;;;;23.33;4.97;;;14.70;99.90;;;;;;5443659;26;20345;-74
2024/04/10 02:01:50;;;;;;;26.17;5.77;;;14.70;99.90;;;;;;5447732;26;20634;-74
2024/04/10 02:04:39;;;;;;;28.73;5.37;;;14.80;99.90;;;;;;5444634;26;20337;-74
2024/04/10 02:07:29;;;;;;;19.87;5.00;;;14.70;99.90;;;;;;5441633;26;20311;-74
2024/04/10 02:10:18;;;;;;;19.93;5.43;;;14.70;99.90;;;;;;5442798;26;20622;-74
2024/04/10 02:13:07;;;;;;;24.63;5.27;;;14.60;99.90;;;;;;5447526;26;20587;-74
2024/04/10 02:15:59;;;;;;;30.33;5.43;;;14.50;99.90;;;;;;5442613;26;20739;-74
2024/04/10 02:18:46;;;;;;;20.23;4.97;;;14.60;1.00;;;;;;5444971;26;20280;-74
2024/04/10 02:21:35;;;;;;;30.43;5.20;;;14.50;1.00;;;;;;5432905;26;20229;-74
2024/04/10 02:24:22;;;;;;;22.40;5.10;;;14.50;1.00;;;;;;5431272;26;20234;-74
2024/04/10 02:27:11;;;;;;;23.17;5.33;;;14.50;1.00;;;;;;5446856;26;20762;-74
2024/04/10 02:29:58;;;;;;;27.37;5.57;;;14.40;1.00;;;;;;5440208;26;20638;-74
2024/04/10 02:32:52;;;;;;;28.30;5.63;;;14.40;1.00;;;;;;5455852;26;20234;-74
2024/04/10 02:35:39;;;;;;;21.20;5.30;;;14.40;1.00;;;;;;5446310;26;20238;-74
2024/04/10 02:38:30;;;;;;;33.90;6.43;;;14.40;1.00;;;;;;5436073;26;20629;-74
2024/04/10 02:41:17;;;;;;;31.17;6.87;;;14.40;1.00;;;;;;5445459;26;20289;-74
2024/04/10 02:44:06;;;;;;;23.83;6.67;;;14.40;1.00;;;;;;5442867;26;20260;-73
2024/04/10 02:46:57;;;;;;;23.83;6.67;;;14.40;1.00;;;;;;5430072;26;20280;-74
2024/04/10 02:49:46;;;;;;;30.73;6.70;;;14.40;1.00;;;;;;5440474;26;20242;-74
2024/04/10 02:52:35;;;;;;;33.40;6.80;;;14.30;1.00;;;;;;5455506;26;20267;-74
2024/04/10 02:55:22;;;;;;;28.93;6.20;;;14.30;1.00;;;;;;5445818;26;20290;-74
2024/04/10 02:58:11;;;;;;;27.53;6.53;;;14.20;1.00;;;;;;5442932;26;20333;-74
2024/04/10 03:00:59;;;;;;;23.83;6.00;;;14.20;1.00;;;;;;5438741;26;20278;-74
2024/04/10 03:03:48;;;;;;;31.53;6.40;;;14.10;80.20;;;;;;5439178;26;20284;-73
2024/04/10 03:06:38;;;;;;;26.63;6.23;;;14.10;86.60;;;;;;5434795;26;20232;-74
2024/04/10 03:09:29;;;;;;;28.20;6.67;;;14.10;99.90;;;;;;5435881;26;20282;-74
2024/04/10 03:12:15;;;;;;;39.07;7.20;;;14.10;99.90;;;;;;5443050;26;20230;-74
2024/04/10 03:15:06;;;;;;;26.70;6.70;;;14.00;99.90;;;;;;5437692;26;20228;-73
2024/04/10 03:17:53;;;;;;;25.47;6.27;;;14.10;99.90;;;;;;5440939;26;20336;-74
2024/04/10 03:20:43;;;;;;;27.23;6.53;;;14.20;99.90;;;;;;5445468;26;20398;-74
2024/04/10 03:23:32;;;;;;;17.77;5.83;;;14.10;99.90;;;;;;5435192;26;20608;-75
2024/04/10 03:26:22;;;;;;;18.03;5.53;;;14.10;99.90;;;;;;5443635;26;20224;-74
2024/04/10 03:29:08;;;;;;;24.33;6.30;;;14.10;96.70;;;;;;5443394;26;20286;-75
2024/04/10 03:31:58;;;;;;;22.90;6.10;;;14.10;88.90;;;;;;5453131;26;20221;-75
2024/04/10 03:34:44;;;;;;;24.57;5.37;;;14.10;74.50;;;;;;5458353;26;20307;-75
2024/04/10 03:37:34;;;;;;;21.30;6.13;;;14.00;99.90;;;;;;5432756;26;20226;-75
2024/04/10 03:40:24;;;;;;;25.00;5.53;;;14.00;99.90;;;;;;5438517;26;20238;-75
2024/04/10 03:43:13;;;;;;;22.57;6.37;;;14.00;99.90;;;;;;5446867;26;20246;-74
2024/04/10 03:46:04;;;;;;;18.57;5.47;;;13.90;99.90;;;;;;5438596;26;20266;-75
2024/04/10 03:48:53;;;;;;;18.33;5.80;;;13.90;99.90;;;;;;5447687;26;20230;-75
2024/04/10 03:51:43;;;;;;;22.77;5.87;;;13.90;99.90;;;;;;5438233;26;20226;-75
2024/04/10 03:54:29;;;;;;;25.17;5.87;;;14.00;99.90;;;;;;5455751;26;20276;-75
2024/04/10 03:57:21;;;;;;;21.53;5.97;;;13.90;99.90;;;;;;5446404;26;20281;-75
2024/04/10 04:00:09;;;;;;;20.30;6.40;;;13.80;99.90;;;;;;5433330;26;20230;-75
2024/04/10 04:02:58;;;;;;;23.47;6.67;;;13.80;99.90;;;;;;5442544;26;20281;-74
2024/04/10 04:05:45;;;;;;;26.57;7.07;;;13.80;99.90;;;;;;5439564;26;20633;-75
2024/04/10 04:08:34;;;;;;;31.30;6.57;;;14.00;99.90;;;;;;5440061;26;20227;-75
2024/04/10 04:11:21;;;;;;;24.03;6.50;;;14.00;99.90;;;;;;5450355;26;20337;-74
2024/04/10 04:14:13;;;;;;;17.50;7.03;;;14.10;99.90;;;;;;5444840;26;20228;-74
2024/04/10 04:17:00;;;;;;;22.90;7.23;;;14.20;99.90;;;;;;5429431;26;20239;-74
2024/04/10 04:19:49;;;;;;;24.07;7.30;;;14.30;99.90;;;;;;5444584;26;20242;-74
2024/04/10 04:22:36;;;;;;;24.23;7.60;;;14.40;99.90;;;;;;5442391;26;20232;-74
2024/04/10 04:25:25;;;;;;;14.17;7.23;;;14.40;99.90;;;;;;5457135;26;20228;-74
2024/04/10 04:28:12;;;;;;;17.33;7.73;;;14.50;99.90;;;;;;5445494;26;20230;-74
2024/04/10 04:31:04;;;;;;;24.70;9.67;;;14.50;99.90;;;;;;5448696;26;20555;-74
2024/04/10 04:33:54;;;;;;;17.37;8.60;;;14.60;68.80;;;;;;5458868;26;20298;-74
2024/04/10 04:36:40;;;;;;;22.60;10.17;;;14.60;1.00;;;;;;5435000;26;20278;-74
2024/04/10 04:39:30;;;;;;;19.63;9.10;;;14.70;1.00;;;;;;5440819;26;20343;-66
2024/04/10 04:42:17;;;;;;;18.33;10.07;;;14.70;1.00;;;;;;5447563;26;20338;-66
2024/04/10 04:45:08;;;;;;;19.03;9.47;;;14.70;6.40;;;;;;5455299;26;20562;-66
2024/04/10 04:47:57;;;;;;;22.13;9.20;;;14.70;29.10;;;;;;5450871;26;20336;-67
2024/04/10 04:50:47;;;;;;;18.50;7.33;;;14.60;51.20;;;;;;5446609;26;20611;-66
2024/04/10 04:53:34;;;;;;;20.57;6.90;;;14.60;99.90;;;;;;5438137;26;20337;-66
2024/04/10 04:56:23;;;;;;;22.73;7.70;;;14.60;99.90;;;;;;5452588;26;21066;-67
2024/04/10 04:59:10;;;;;;;25.57;8.00;;;14.50;99.90;;;;;;5448745;26;20321;-66
2024/04/10 05:02:00;;;;;;;23.03;7.57;;;14.50;99.90;;;;;;5452696;26;20820;-66
2024/04/10 05:04:57;;;;;;;27.73;7.87;;;14.50;99.90;;;;;;5448657;26;20282;-66
2024/04/10 05:07:48;;;;;;;26.40;7.33;;;14.50;99.90;;;;;;5441479;26;20220;-66
2024/04/10 05:10:37;;;;;;;27.77;7.80;;;14.50;99.90;;;;;;5429598;26;20756;-67
2024/04/10 05:13:24;;;;;;;24.43;8.43;;;14.60;1.00;;;;;;5429976;26;20294;-66
2024/04/10 05:16:13;;;;;;;24.03;9.27;;;14.50;1.00;;;;;;5441748;26;20228;-67
2024/04/10 05:19:04;;;;;;;27.33;13.13;;;14.50;1.00;;;;;;5443605;26;20249;-67
2024/04/10 05:21:56;;;;;;;22.67;10.50;;;14.40;1.00;;;;;;5439764;26;20225;-67
2024/04/10 05:24:43;;;;;;;27.50;12.43;;;14.40;1.00;;;;;;5449923;26;20280;-67
2024/04/10 05:27:32;;;;;;;31.83;13.83;;;14.30;1.00;;;;;;5440330;26;20231;-66
2024/04/10 05:30:19;;;;;;;26.87;14.77;;;14.20;1.00;;;;;;5436862;26;20642;-67
2024/04/10 05:33:08;;;;;;;37.47;18.03;;;14.00;1.00;;;;;;5454130;26;20225;-66
2024/04/10 05:35:59;;;;;;;30.37;15.03;;;13.80;99.90;;;;;;5445836;26;20302;-67
2024/04/10 05:38:52;;;;;;;20.57;11.93;;;13.70;99.90;;;;;;5421038;26;20611;-66
2024/04/10 05:41:39;;;;;;;25.13;10.97;;;13.60;99.90;;;;;;5427558;26;20242;-66
2024/04/10 05:44:28;;;;;;;20.73;10.40;;;13.60;99.90;;;;;;5430928;26;20223;-66
2024/04/10 05:47:15;;;;;;;23.00;9.93;;;13.50;99.90;;;;;;5443049;26;20302;-66
2024/04/10 05:50:05;;;;;;;18.47;9.80;;;13.30;1.00;;;;;;5448009;26;21101;-66
2024/04/10 05:52:52;;;;;;;21.00;11.77;;;13.00;1.00;;;;;;5442052;26;20348;-66
2024/04/10 05:55:44;;;;;;;32.07;12.00;;;13.00;1.00;;;;;;5438153;26;20346;-66
2024/04/10 05:58:31;;;;;;;23.90;9.93;;;12.80;1.00;;;;;;5438995;26;20270;-66
2024/04/10 06:01:20;;;;;;;41.97;18.47;;;12.70;99.90;;;;;;5441533;26;20226;-67
2024/04/10 06:04:07;;;;;;;35.07;15.43;;;12.50;99.90;;;;;;5450485;26;20271;-66
2024/04/10 06:06:56;;;;;;;30.50;13.40;;;12.50;1.00;;;;;;5454871;26;20745;-66
2024/04/10 06:09:45;;;;;;;30.23;12.37;;;12.30;99.90;;;;;;5433364;26;20306;-66
2024/04/10 06:12:35;;;;;;;35.30;11.90;;;12.30;98.80;;;;;;5441757;26;20282;-66
2024/04/10 06:15:24;;;;;;;34.03;12.50;;;12.30;99.90;;;;;;5443260;26;20228;-67
2024/04/10 06:18:11;;;;;;;44.03;13.63;;;12.30;1.00;;;;;;5445383;26;20234;-66
2024/04/10 06:21:01;;;;;;;43.57;13.70;;;12.30;99.90;;;;;;5442381;26;20237;-66
2024/04/10 06:23:47;;;;;;;33.90;14.90;;;12.40;1.00;;;;;;5444714;26;20292;-67
2024/04/10 06:26:37;;;;;;;40.00;15.30;;;12.40;1.00;;;;;;5455871;26;20223;-66
2024/04/10 06:29:26;;;;;;;36.10;14.30;;;12.30;1.00;;;;;;5433103;26;21039;-66
2024/04/10 06:32:16;;;;;;;38.77;13.30;;;12.40;1.00;;;;;;5440585;26;20825;-66
2024/04/10 06:35:03;;;;;;;35.30;11.10;;;12.30;99.90;;;;;;5440445;26;20229;-66
2024/04/10 06:37:52;;;;;;;43.20;13.10;;;12.20;99.90;;;;;;5441406;26;20226;-67
2024/04/10 06:40:39;;;;;;;26.53;5.73;;;12.20;99.90;;;;;;5427831;26;20276;-66
2024/04/10 06:43:28;;;;;;;27.63;9.47;;;12.10;99.90;;;;;;5444307;26;20226;-67
2024/04/10 06:46:21;;;;;;;24.70;10.80;;;11.90;99.90;;;;;;5448586;26;20799;-66
2024/04/10 06:49:12;;;;;;;20.33;9.93;;;11.80;99.90;;;;;;5431039;26;20238;-66
2024/04/10 06:52:01;;;;;;;28.30;10.93;;;11.80;99.90;;;;;;5441726;26;20724;-66
2024/04/10 06:54:48;;;;;;;20.47;6.93;;;11.80;99.90;;;;;;5454276;26;20262;-66
2024/04/10 06:57:38;;;;;;;27.70;12.40;;;11.70;99.90;;;;;;5460719;26;20279;-66
2024/04/10 07:00:25;;;;;;;30.87;12.87;;;11.70;99.90;;;;;;5452459;26;20304;-66
2024/04/10 07:03:17;;;;;;;28.80;11.57;;;11.60;99.90;;;;;;5433446;26;20350;-66
2024/04/10 07:06:05;;;;;;;29.93;12.10;;;11.40;99.90;;;;;;5437429;26;20241;-66
2024/04/10 07:08:55;;;;;;;27.13;11.53;;;11.40;99.90;;;;;;5445468;26;20235;-65
2024/04/10 07:11:42;;;;;;;29.63;9.87;;;11.40;99.90;;;;;;5439033;26;20284;-66
2024/04/10 07:14:34;;;;;;;35.60;11.30;;;11.40;99.90;;;;;;5435397;26;20593;-67
2024/04/10 07:17:23;;;;;;;26.03;9.77;;;11.40;99.90;;;;;;5445080;26;20337;-66
2024/04/10 07:20:14;;;;;;;34.23;12.50;;;11.40;99.90;;;;;;5435558;26;20767;-66
2024/04/10 07:23:06;;;;;;;33.90;13.23;;;11.50;99.90;;;;;;5432281;26;20235;-66
2024/04/10 07:25:52;;;;;;;38.77;16.17;;;11.40;99.90;;;;;;5436786;26;20596;-66
2024/04/10 07:28:44;;;;;;;39.27;14.10;;;11.40;32.70;;;;;;5446395;26;20334;-66
2024/04/10 07:31:31;;;;;;;38.77;13.70;;;11.40;1.00;;;;;;5446143;26;20229;-66
2024/04/10 07:34:21;;;;;;;29.90;13.57;;;11.30;1.00;;;;;;5441727;26;20275;-65
2024/04/10 07:37:12;;;;;;;35.27;13.13;;;11.10;99.90;;;;;;5449468;26;20233;-66
2024/04/10 07:40:01;;;;;;;28.73;10.53;;;11.20;99.90;;;;;;5437848;26;20712;-67
2024/04/10 07:42:48;;;;;;;32.47;8.43;;;11.20;1.00;;;;;;5435172;26;20782;-66
2024/04/10 07:45:37;;;;;;;27.30;9.80;;;11.20;1.00;;;;;;5450801;26;20307;-66
2024/04/10 07:48:24;;;;;;;22.03;9.87;;;11.20;1.00;;;;;;5439571;26;20307;-66
2024/04/10 07:51:14;;;;;;;24.97;10.03;;;11.20;1.00;;;;;;5446029;26;20225;-65
2024/04/10 07:54:04;;;;;;;22.97;8.50;;;11.30;1.00;;;;;;5439594;26;20230;-66
2024/04/10 07:56:53;;;;;;;27.90;8.67;;;11.20;1.00;;;;;;5439914;26;20296;-66
2024/04/10 07:59:40;;;;;;;22.33;7.90;;;11.30;1.00;;;;;;5447672;26;20762;-65
2024/04/10 08:02:30;;;;;;;21.57;6.80;;;11.30;1.00;;;;;;5440088;26;20221;-66
2024/04/10 08:05:16;;;;;;;21.17;7.03;;;11.20;1.00;;;;;;5438372;26;20299;-66
2024/04/10 08:08:06;;;;;;;23.50;7.27;;;11.30;1.00;;;;;;5424924;26;20230;-66
2024/04/10 08:11:00;;;;;;;16.13;4.77;;;11.30;1.00;;;;;;5443242;26;20238;-66
2024/04/10 08:13:49;;;;;;;19.87;5.93;;;11.40;1.00;;;;;;5440600;26;20220;-66
2024/04/10 08:16:36;;;;;;;16.37;4.93;;;11.40;99.90;;;;;;5429538;26;20226;-66
2024/04/10 08:19:25;;;;;;;14.37;5.03;;;11.50;1.00;;;;;;5451206;26;20233;-66
2024/04/10 08:22:12;;;;;;;14.53;4.83;;;11.50;1.00;;;;;;5428507;26;20329;-66
2024/04/10 08:25:01;;;;;;;14.90;4.07;;;11.60;99.90;;;;;;5424287;26;20234;-66
2024/04/10 08:27:51;;;;;;;23.13;5.87;;;11.60;99.90;;;;;;5455189;26;20341;-66
2024/04/10 08:30:44;;;;;;;19.37;5.23;;;11.60;99.90;;;;;;5440103;26;20342;-65
2024/04/10 08:33:31;;;;;;;13.43;4.90;;;11.50;99.90;;;;;;5454401;26;20722;-65
2024/04/10 08:36:20;;;;;;;23.00;4.87;;;11.50;99.90;;;;;;5435203;26;20319;-66
2024/04/10 08:39:07;;;;;;;19.27;4.70;;;11.50;99.90;;;;;;5437382;26;20238;-66
2024/04/10 08:41:57;;;;;;;13.27;4.80;;;11.60;99.90;;;;;;5464931;26;20653;-66
2024/04/10 08:44:46;;;;;;;13.23;4.70;;;11.70;99.90;;;;;;5438508;26;20244;-66
2024/04/10 08:47:36;;;;;;;10.30;4.20;;;11.70;99.90;;;;;;5421530;26;20243;-66
2024/04/10 08:50:23;;;;;;;14.40;4.20;;;11.80;99.90;;;;;;5435608;26;20667;-66
2024/04/10 08:53:13;;;;;;;16.57;4.63;;;11.70;99.90;;;;;;5442397;26;20332;-65
2024/04/10 08:55:59;;;;;;;10.30;4.00;;;11.80;99.90;;;;;;5442711;26;20230;-67
2024/04/10 08:58:49;;;;;;;12.27;4.37;;;11.80;99.90;;;;;;5442468;26;20233;-66
2024/04/10 09:01:41;;;;;;;11.30;3.33;;;11.60;99.90;;;;;;5440996;26;20230;-66
2024/04/10 09:04:30;;;;;;;10.73;4.07;;;11.70;99.90;;;;;;5442642;26;20339;-66
2024/04/10 09:07:18;;;;;;;15.97;4.97;;;11.70;99.90;;;;;;5436776;26;20750;-66
2024/04/10 09:10:14;;;;;;;13.47;4.53;;;11.80;99.90;;;;;;5425256;26;20583;-67
2024/04/10 09:13:05;;;;;;;14.20;4.50;;;11.70;99.90;;;;;;5438609;26;20231;-66
2024/04/10 09:15:59;;;;;;;11.63;3.53;;;11.70;99.90;;;;;;5450497;26;20230;-66
2024/04/10 09:18:48;;;;;;;9.47;3.83;;;11.70;99.90;;;;;;5439495;26;20780;-66
2024/04/10 09:21:38;;;;;;;15.57;4.60;;;11.70;99.90;;;;;;5435315;26;20332;-66
2024/04/10 09:24:25;;;;;;;13.13;4.50;;;11.70;99.90;;;;;;5443489;26;20231;-66
2024/04/10 09:27:14;;;;;;;10.57;4.40;;;11.70;99.90;;;;;;5435980;26;20335;-65
2024/04/10 09:30:01;;;;;;;18.73;5.80;;;11.60;99.90;;;;;;5443062;26;20299;-67
2024/04/10 09:32:50;;;;;;;14.70;5.53;;;11.70;99.90;;;;;;5447470;26;20313;-66
2024/04/10 09:35:41;;;;;;;13.57;5.17;;;11.70;99.90;;;;;;5438166;26;20290;-66
2024/04/10 09:38:31;;;;;;;12.87;3.90;;;11.70;99.90;;;;;;5445009;26;20242;-66
2024/04/10 09:41:18;;;;;;;11.50;4.10;;;11.70;99.90;;;;;;5447386;26;20238;-67
2024/04/10 09:44:08;;;;;;;15.17;3.07;;;11.70;99.90;;;;;;5436942;26;20243;-66
2024/04/10 09:46:56;;;;;;;6.90;2.80;;;11.70;99.90;;;;;;5431115;26;20235;-66
2024/04/10 09:49:46;;;;;;;4.87;1.60;;;11.80;99.90;;;;;;5440213;26;20670;-66
2024/04/10 09:52:36;;;;;;;7.97;2.67;;;11.90;99.90;;;;;;5445798;26;20232;-66
2024/04/10 09:55:25;;;;;;;6.83;1.47;;;12.00;99.90;;;;;;5444749;26;20242;-66
2024/04/10 09:58:13;;;;;;;12.90;3.07;;;11.80;99.90;;;;;;5443960;26;20225;-66
2024/04/10 10:01:03;;;;;;;7.43;3.00;;;11.70;99.90;;;;;;5446344;26;20240;-66
2024/04/10 10:03:56;;;;;;;10.70;4.03;;;11.80;99.90;;;;;;5447966;26;20237;-66
2024/04/10 10:06:45;;;;;;;6.33;3.07;;;12.00;99.90;;;;;;5446705;26;20277;-66
2024/04/10 10:09:35;;;;;;;9.77;4.10;;;12.10;99.90;;;;;;5435779;26;20228;-66
2024/04/10 10:12:28;;;;;;;6.27;2.90;;;11.90;99.90;;;;;;5442450;26;20686;-66
2024/04/10 10:15:14;;;;;;;6.77;2.60;;;11.90;99.90;;;;;;5437399;26;20240;-66
2024/04/10 10:18:04;;;;;;;11.67;2.70;;;11.90;99.90;;;;;;5446538;26;20225;-66
2024/04/10 10:21:01;;;;;;;15.83;3.30;;;11.80;99.90;;;;;;5443694;26;20297;-66
2024/04/10 10:23:57;;;;;;;9.37;3.17;;;11.90;99.90;;;;;;5439426;26;20297;-67
2024/04/10 10:26:56;;;;;;;15.37;3.97;;;11.80;99.90;;;;;;5437605;26;20236;-66
2024/04/10 10:29:46;;;;;;;11.03;3.90;;;12.10;99.90;;;;;;5461800;26;20279;-66
2024/04/10 10:32:32;;;;;;;5.40;3.03;;;12.10;99.90;;;;;;5428128;26;20629;-65
2024/04/10 10:35:22;;;;;;;10.00;4.40;;;12.20;99.90;;;;;;5450963;26;20233;-66
2024/04/10 10:38:09;;;;;;;12.83;5.33;;;12.10;99.90;;;;;;5448029;26;20238;-66
2024/04/10 10:40:58;;;;;;;8.37;5.00;;;12.20;99.90;;;;;;5452567;26;20234;-66
2024/04/10 10:43:47;;;;;;;11.70;4.10;;;12.30;99.90;;;;;;5449133;26;20224;-66
2024/04/10 10:46:37;;;;;;;12.27;5.40;;;12.40;99.90;;;;;;5441622;26;20341;-66
2024/04/10 10:49:26;;;;;;;16.50;4.73;;;12.10;99.90;;;;;;5453713;26;20227;-65
2024/04/10 10:52:13;;;;;;;13.83;3.90;;;12.10;99.90;;;;;;5439503;26;20760;-66
2024/04/10 10:55:08;;;;;;;13.87;6.07;;;12.10;99.90;;;;;;5445477;26;20349;-66
2024/04/10 10:58:01;;;;;;;16.67;5.37;;;12.00;99.90;;;;;;5440669;26;20229;-65
2024/04/10 11:00:53;;;;;;;11.67;4.87;;;11.90;99.90;;;;;;5440637;26;20559;-66
2024/04/10 11:03:40;;;;;;;7.63;3.60;;;12.00;99.90;;;;;;5434734;26;20594;-66
2024/04/10 11:06:29;;;;;;;7.50;4.13;;;11.80;99.90;;;;;;5443866;26;20230;-66
2024/04/10 11:09:16;;;;;;;7.33;4.00;;;12.00;99.90;;;;;;5442967;26;20287;-65
2024/04/10 11:12:06;;;;;;;8.17;4.73;;;11.90;99.90;;;;;;5448642;26;20271;-65
2024/04/10 11:14:53;;;;;;;10.93;4.93;;;11.80;99.90;;;;;;5439837;26;20277;-66
2024/04/10 11:17:45;;;;;;;14.90;5.93;;;11.80;99.90;;;;;;5430020;26;20274;-66
2024/04/10 11:20:34;;;;;;;14.67;6.10;;;12.00;99.90;;;;;;5440502;26;20232;-66
2024/04/10 11:23:23;;;;;;;11.07;5.47;;;12.20;99.90;;;;;;5428918;26;20230;-66
2024/04/10 11:26:13;;;;;;;8.67;5.27;;;12.00;99.90;;;;;;5450286;26;20260;-67
2024/04/10 11:29:00;;;;;;;18.13;6.97;;;12.10;99.90;;;;;;5450462;26;20232;-67
2024/04/10 11:31:49;;;;;;;11.50;6.57;;;12.10;99.90;;;;;;5441682;26;20268;-66
2024/04/10 11:34:38;;;;;;;11.37;5.63;;;12.10;99.90;;;;;;5440161;26;20793;-67
2024/04/10 11:37:28;;;;;;;10.87;5.07;;;12.10;99.90;;;;;;5441089;26;20276;-65
2024/04/10 11:40:16;;;;;;;10.27;4.73;;;12.20;99.90;;;;;;5443609;26;20278;-66
2024/04/10 11:43:05;;;;;;;9.53;4.30;;;12.20;99.90;;;;;;5438953;26;20690;-66
2024/04/10 11:45:52;;;;;;;10.90;4.93;;;12.10;99.90;;;;;;5449909;26;20227;-65
2024/04/10 11:48:41;;;;;;;14.13;5.33;;;12.00;99.90;;;;;;5446653;26;20341;-66
2024/04/10 11:51:33;;;;;;;5.87;3.80;;;12.00;99.90;;;;;;5453353;26;20245;-66
2024/04/10 11:56:10;;;;;;;14.30;4.60;;;11.90;99.90;;;;;;5503866;25;20767;-65
2024/04/10 11:58:57;;;;;;;9.57;4.03;;;11.90;99.90;;;;;;5523752;25;20746;-66
2024/04/10 12:01:46;;;;;;;8.97;3.53;;;11.90;99.90;;;;;;5521489;25;20275;-65
2024/04/10 12:04:33;;;;;;;10.73;3.67;;;11.80;99.90;;;;;;5529460;25;20269;-65
2024/04/10 12:07:22;;;;;;;9.60;2.83;;;11.90;99.90;;;;;;5543302;25;20223;-65
2024/04/10 12:10:09;;;;;;;7.53;3.47;;;11.90;99.90;;;;;;5525590;25;20288;-66
2024/04/10 12:13:03;;;;;;;7.73;3.13;;;11.80;99.90;;;;;;5513222;25;20690;-66
2024/04/10 12:15:49;;;;;;;6.50;3.50;;;11.80;99.90;;;;;;5517416;25;20227;-66
2024/04/10 12:18:39;;;;;;;6.97;2.63;;;11.80;99.90;;;;;;5529729;25;20302;-66
2024/04/10 12:21:25;;;;;;;10.83;3.67;;;11.90;99.90;;;;;;5520518;25;20700;-65
2024/04/10 12:24:14;;;;;;;11.67;3.90;;;11.80;99.90;;;;;;5512049;25;20240;-66
2024/04/10 12:27:01;;;;;;;2.50;1.77;;;12.00;99.90;;;;;;5509329;25;20236;-66
2024/04/10 12:29:53;;;;;;;11.67;3.97;;;12.00;99.90;;;;;;5523281;25;20326;-66
2024/04/10 12:32:40;;;;;;;10.30;3.63;;;12.00;99.90;;;;;;5506467;25;20304;-65
2024/04/10 12:38:35;;;;;;;10.30;3.00;;;12.00;99.90;;;;;;5520612;25;20326;-65
2024/04/10 12:41:25;;;;;;;7.40;2.83;;;11.90;99.90;;;;;;5549246;25;20649;-65
2024/04/10 12:44:20;;;;;;;6.93;3.00;;;11.90;99.90;;;;;;5556945;25;20296;-66
2024/04/10 12:47:12;;;;;;;7.10;2.60;;;12.00;99.90;;;;;;5557911;25;20237;-66
2024/04/10 12:49:59;;;;;;;8.80;2.57;;;11.90;99.90;;;;;;5545869;25;20274;-66
2024/04/10 12:52:48;;;;;;;8.33;3.33;;;11.90;99.90;;;;;;5562453;25;20766;-66
2024/04/10 12:55:35;;;;;;;8.20;2.77;;;11.70;99.90;;;;;;5505806;25;20377;-66
2024/04/10 12:58:24;;;;;;;8.30;3.20;;;11.90;99.90;;;;;;5513319;25;20416;-66
2024/04/10 13:01:11;;;;;;;12.70;3.53;;;12.00;99.90;;;;;;5509937;25;20228;-65
2024/04/10 13:04:05;;;;;;;6.67;3.03;;;11.90;99.90;;;;;;5502192;25;20232;-66
2024/04/10 13:06:51;;;;;;;7.47;2.87;;;11.80;99.90;;;;;;5512934;25;20342;-65
2024/04/10 13:09:41;;;;;;;4.47;2.53;;;11.70;99.90;;;;;;5507022;26;20234;-65
2024/04/10 13:12:30;;;;;;;7.37;3.33;;;11.60;99.90;;;;;;5504063;26;20425;-65
2024/04/10 13:15:17;;;;;;;7.77;3.50;;;11.70;99.90;;;;;;5513690;26;20237;-66
2024/04/10 13:18:06;;;;;;;5.13;2.67;;;11.70;99.90;;;;;;5500924;26;20221;-65
2024/04/10 13:20:56;;;;;;;5.10;2.87;;;11.80;99.90;;;;;;5477112;26;20730;-65
2024/04/10 13:23:46;;;;;;;12.80;3.47;;;11.70;99.90;;;;;;5502250;26;20237;-65
2024/04/10 13:26:33;;;;;;;9.47;3.60;;;11.80;99.90;;;;;;5483708;26;20563;-66
2024/04/10 13:29:22;;;;;;;6.10;2.60;;;11.60;99.90;;;;;;5490988;26;20228;-66
2024/04/10 13:32:09;;;;;;;9.20;3.57;;;11.60;99.90;;;;;;5499386;26;20288;-66
2024/04/10 13:34:58;;;;;;;10.07;4.43;;;11.70;99.90;;;;;;5500510;26;20224;-66
2024/04/10 13:37:48;;;;;;;14.17;4.07;;;11.80;99.90;;;;;;5509795;26;20749;-65
2024/04/10 13:40:37;;;;;;;7.73;3.27;;;11.90;99.90;;;;;;5501892;26;20221;-65
2024/04/10 13:43:24;;;;;;;9.07;4.00;;;12.00;99.90;;;;;;5501153;26;20280;-65
2024/04/10 13:46:14;;;;;;;15.50;4.40;;;11.90;99.90;;;;;;5479749;26;20637;-66
2024/04/10 13:49:03;;;;;;;13.83;4.70;;;11.70;99.90;;;;;;5495513;26;20305;-66
2024/04/10 13:51:50;;;;;;;11.63;4.50;;;11.80;99.90;;;;;;5493830;26;20299;-65
2024/04/10 13:54:42;;;;;;;11.30;4.77;;;11.60;99.90;;;;;;5518944;25;20276;-65
2024/04/10 13:57:29;;;;;;;12.57;5.00;;;11.60;99.90;;;;;;5536311;25;20839;-66
2024/04/10 14:00:19;;;;;;;11.17;4.13;;;11.70;99.90;;;;;;5539901;25;20330;-66
2024/04/10 14:03:07;;;;;;;9.23;3.83;;;11.80;99.90;;;;;;5531214;25;20230;-67
2024/04/10 14:06:02;;;;;;;12.53;3.90;;;11.80;99.90;;;;;;5537300;25;20331;-65
2024/04/10 14:08:48;;;;;;;9.27;4.40;;;11.80;99.90;;;;;;5529926;25;20237;-65
2024/04/10 14:11:40;;;;;;;6.17;3.40;;;11.80;99.90;;;;;;5543279;25;20232;-65
2024/04/10 14:14:27;;;;;;;8.73;3.77;;;11.80;99.90;;;;;;5534496;25;20272;-65
2024/04/10 14:17:16;;;;;;;8.30;3.80;;;11.80;99.90;;;;;;5540589;25;20219;-66
2024/04/10 14:20:05;;;;;;;14.33;4.27;;;11.90;99.90;;;;;;5547128;25;20278;-65
2024/04/10 14:22:55;;;;;;;5.87;3.73;;;11.80;99.90;;;;;;5522748;25;20337;-66
2024/04/10 14:25:41;;;;;;;11.33;4.20;;;11.90;99.90;;;;;;5540177;25;20309;-65
2024/04/10 14:28:34;;;;;;;10.33;3.67;;;11.90;99.90;;;;;;5540443;25;20280;-66
2024/04/10 14:31:23;;;;;;;6.63;3.90;;;12.00;99.90;;;;;;5532741;25;20272;-65
2024/04/10 14:34:10;;;;;;;8.10;3.43;;;11.90;99.90;;;;;;5532510;25;20788;-65